sensor_id;sensor_type;location;lat;lon;timestamp;pressure;altitude;pressure_sealevel;temperature;humidity
58757;BME280;44527;47.460;19.016;2023-04-28T00:01:20;100826.19;;;5.56;67.40
58757;BME280;44527;47.460;19.016;2023-04-28T00:04:22;100827.63;;;5.65;66.94
58757;BME280;44527;47.460;19.016;2023-04-28T00:07:25;100826.34;;;5.29;68.36
58757;BME280;44527;47.460;19.016;2023-04-28T00:10:30;100830.28;;;5.40;67.98
58757;BME280;44527;47.460;19.016;2023-04-28T00:13:32;100829.34;;;5.17;69.55
58757;BME280;44527;47.460;19.016;2023-04-28T00:16:34;100828.75;;;5.34;68.64
58757;BME280;44527;47.460;19.016;2023-04-28T00:19:37;100820.78;;;5.15;70.04
58757;BME280;44527;47.460;19.016;2023-04-28T00:22:39;100826.87;;;4.89;70.58
58757;BME280;44527;47.460;19.016;2023-04-28T00:25:41;100829.47;;;4.89;71.20
58757;BME280;44527;47.460;19.016;2023-04-28T00:28:44;100819.81;;;4.93;71.79
58757;BME280;44527;47.460;19.016;2023-04-28T00:31:47;100822.50;;;4.91;72.20
58757;BME280;44527;47.460;19.016;2023-04-28T00:34:50;100823.13;;;4.98;73.03
58757;BME280;44527;47.460;19.016;2023-04-28T00:37:52;100819.44;;;5.03;72.63
58757;BME280;44527;47.460;19.016;2023-04-28T00:40:54;100820.13;;;4.83;72.64
58757;BME280;44527;47.460;19.016;2023-04-28T00:43:56;100819.38;;;4.81;72.30
58757;BME280;44527;47.460;19.016;2023-04-28T00:46:58;100822.63;;;4.87;72.33
58757;BME280;44527;47.460;19.016;2023-04-28T00:50:01;100816.47;;;4.89;72.08
58757;BME280;44527;47.460;19.016;2023-04-28T00:53:03;100817.47;;;5.10;71.77
58757;BME280;44527;47.460;19.016;2023-04-28T00:56:05;100815.84;;;4.82;73.49
58757;BME280;44527;47.460;19.016;2023-04-28T00:59:08;100819.16;;;4.88;73.26
58757;BME280;44527;47.460;19.016;2023-04-28T01:02:10;100820.41;;;4.76;73.40
58757;BME280;44527;47.460;19.016;2023-04-28T01:05:19;100829.69;;;4.83;72.97
58757;BME280;44527;47.460;19.016;2023-04-28T01:08:22;100828.84;;;5.07;72.35
58757;BME280;44527;47.460;19.016;2023-04-28T01:11:25;100828.00;;;5.07;72.23
58757;BME280;44527;47.460;19.016;2023-04-28T01:14:29;100828.12;;;3.99;77.47
58757;BME280;44527;47.460;19.016;2023-04-28T01:17:33;100824.44;;;3.78;78.36
58757;BME280;44527;47.460;19.016;2023-04-28T01:20:36;100830.06;;;3.64;80.13
58757;BME280;44527;47.460;19.016;2023-04-28T01:23:38;100831.47;;;3.45;80.79
58757;BME280;44527;47.460;19.016;2023-04-28T01:26:40;100828.78;;;3.48;79.70
58757;BME280;44527;47.460;19.016;2023-04-28T01:29:42;100832.72;;;3.32;81.26
58757;BME280;44527;47.460;19.016;2023-04-28T01:32:46;100831.03;;;3.31;81.79
58757;BME280;44527;47.460;19.016;2023-04-28T01:35:48;100832.06;;;3.23;81.97
58757;BME280;44527;47.460;19.016;2023-04-28T01:38:50;100822.38;;;3.30;81.98
58757;BME280;44527;47.460;19.016;2023-04-28T01:41:53;100825.06;;;3.27;82.26
58757;BME280;44527;47.460;19.016;2023-04-28T01:44:55;100819.00;;;3.28;82.19
58757;BME280;44527;47.460;19.016;2023-04-28T01:47:57;100816.41;;;3.28;82.30
58757;BME280;44527;47.460;19.016;2023-04-28T01:50:59;100815.41;;;3.32;81.42
58757;BME280;44527;47.460;19.016;2023-04-28T01:54:01;100820.69;;;3.59;80.63
58757;BME280;44527;47.460;19.016;2023-04-28T01:57:04;100820.44;;;3.66;80.43
58757;BME280;44527;47.460;19.016;2023-04-28T02:00:06;100821.47;;;3.90;78.58
58757;BME280;44527;47.460;19.016;2023-04-28T02:03:09;100822.41;;;3.88;78.42
58757;BME280;44527;47.460;19.016;2023-04-28T02:06:11;100833.16;;;3.76;79.63
58757;BME280;44527;47.460;19.016;2023-04-28T02:09:13;100834.78;;;4.08;77.90
58757;BME280;44527;47.460;19.016;2023-04-28T02:12:18;100827.09;;;4.31;76.89
58757;BME280;44527;47.460;19.016;2023-04-28T02:15:20;100825.69;;;4.48;74.99
58757;BME280;44527;47.460;19.016;2023-04-28T02:18:22;100827.34;;;4.24;76.31
58757;BME280;44527;47.460;19.016;2023-04-28T02:21:25;100839.28;;;3.73;79.34
58757;BME280;44527;47.460;19.016;2023-04-28T02:24:27;100833.50;;;3.65;78.94
58757;BME280;44527;47.460;19.016;2023-04-28T02:27:31;100829.78;;;3.74;79.19
58757;BME280;44527;47.460;19.016;2023-04-28T02:30:33;100831.62;;;3.40;81.13
58757;BME280;44527;47.460;19.016;2023-04-28T02:33:36;100827.25;;;3.41;81.29
58757;BME280;44527;47.460;19.016;2023-04-28T02:36:38;100831.53;;;3.43;80.67
58757;BME280;44527;47.460;19.016;2023-04-28T02:39:41;100833.63;;;3.88;77.92
58757;BME280;44527;47.460;19.016;2023-04-28T02:42:43;100836.09;;;3.93;76.88
58757;BME280;44527;47.460;19.016;2023-04-28T02:45:45;100836.66;;;4.03;76.62
58757;BME280;44527;47.460;19.016;2023-04-28T02:48:47;100836.53;;;4.34;74.89
58757;BME280;44527;47.460;19.016;2023-04-28T02:51:49;100840.25;;;4.27;74.77
58757;BME280;44527;47.460;19.016;2023-04-28T02:54:51;100827.94;;;4.05;75.28
58757;BME280;44527;47.460;19.016;2023-04-28T02:57:58;100832.41;;;4.00;76.29
58757;BME280;44527;47.460;19.016;2023-04-28T03:01:01;100830.94;;;4.20;74.57
58757;BME280;44527;47.460;19.016;2023-04-28T03:04:04;100839.44;;;3.97;76.38
58757;BME280;44527;47.460;19.016;2023-04-28T03:07:06;100843.25;;;4.13;75.26
58757;BME280;44527;47.460;19.016;2023-04-28T03:10:08;100847.47;;;4.17;74.25
58757;BME280;44527;47.460;19.016;2023-04-28T03:13:11;100847.34;;;3.64;76.69
58757;BME280;44527;47.460;19.016;2023-04-28T03:16:16;100847.88;;;3.16;80.13
58757;BME280;44527;47.460;19.016;2023-04-28T03:19:18;100855.75;;;3.11;80.66
58757;BME280;44527;47.460;19.016;2023-04-28T03:22:21;100858.94;;;3.21;80.56
58757;BME280;44527;47.460;19.016;2023-04-28T03:25:23;100855.22;;;3.61;77.66
58757;BME280;44527;47.460;19.016;2023-04-28T03:28:28;100850.22;;;3.84;76.45
58757;BME280;44527;47.460;19.016;2023-04-28T03:31:33;100844.16;;;4.12;75.91
58757;BME280;44527;47.460;19.016;2023-04-28T03:34:36;100850.09;;;4.17;75.08
58757;BME280;44527;47.460;19.016;2023-04-28T03:37:41;100857.91;;;4.15;75.27
58757;BME280;44527;47.460;19.016;2023-04-28T03:40:58;100860.97;;;4.00;74.94
58757;BME280;44527;47.460;19.016;2023-04-28T03:44:02;100855.59;;;3.78;76.49
58757;BME280;44527;47.460;19.016;2023-04-28T03:47:05;100856.50;;;4.05;75.66
58757;BME280;44527;47.460;19.016;2023-04-28T03:50:07;100855.28;;;4.17;75.06
58757;BME280;44527;47.460;19.016;2023-04-28T03:53:10;100855.56;;;4.34;73.88
58757;BME280;44527;47.460;19.016;2023-04-28T03:56:12;100850.28;;;4.11;75.55
58757;BME280;44527;47.460;19.016;2023-04-28T03:59:14;100864.78;;;4.45;74.03
58757;BME280;44527;47.460;19.016;2023-04-28T04:02:16;100861.19;;;4.75;72.34
58757;BME280;44527;47.460;19.016;2023-04-28T04:05:19;100860.34;;;4.75;72.07
58757;BME280;44527;47.460;19.016;2023-04-28T04:08:21;100859.84;;;4.89;72.55
58757;BME280;44527;47.460;19.016;2023-04-28T04:11:24;100858.91;;;4.91;72.32
58757;BME280;44527;47.460;19.016;2023-04-28T04:14:26;100858.06;;;4.91;72.77
58757;BME280;44527;47.460;19.016;2023-04-28T04:17:28;100861.88;;;5.05;71.79
58757;BME280;44527;47.460;19.016;2023-04-28T04:20:30;100867.44;;;4.95;71.83
58757;BME280;44527;47.460;19.016;2023-04-28T04:23:32;100876.00;;;4.98;71.77
58757;BME280;44527;47.460;19.016;2023-04-28T04:26:35;100875.16;;;4.98;72.23
58757;BME280;44527;47.460;19.016;2023-04-28T04:29:39;100880.72;;;5.12;71.75
58757;BME280;44527;47.460;19.016;2023-04-28T04:32:42;100881.00;;;5.76;69.01
58757;BME280;44527;47.460;19.016;2023-04-28T04:35:44;100888.97;;;5.97;67.53
58757;BME280;44527;47.460;19.016;2023-04-28T04:38:46;100885.28;;;5.78;68.33
58757;BME280;44527;47.460;19.016;2023-04-28T04:41:49;100874.66;;;6.07;67.48
58757;BME280;44527;47.460;19.016;2023-04-28T04:44:52;100883.41;;;6.28;66.02
58757;BME280;44527;47.460;19.016;2023-04-28T04:47:57;100877.97;;;6.55;65.85
58757;BME280;44527;47.460;19.016;2023-04-28T04:51:00;100875.00;;;6.84;65.41
58757;BME280;44527;47.460;19.016;2023-04-28T04:54:02;100874.28;;;7.22;64.07
58757;BME280;44527;47.460;19.016;2023-04-28T04:57:04;100876.09;;;7.59;63.49
58757;BME280;44527;47.460;19.016;2023-04-28T05:00:09;100879.16;;;8.79;58.82
58757;BME280;44527;47.460;19.016;2023-04-28T05:03:11;100876.09;;;10.35;53.91
58757;BME280;44527;47.460;19.016;2023-04-28T05:06:14;100876.91;;;11.55;50.61
58757;BME280;44527;47.460;19.016;2023-04-28T05:09:18;100879.25;;;13.48;45.93
58757;BME280;44527;47.460;19.016;2023-04-28T05:12:20;100872.38;;;15.71;40.64
58757;BME280;44527;47.460;19.016;2023-04-28T05:15:23;100881.94;;;16.49;37.79
58757;BME280;44527;47.460;19.016;2023-04-28T05:18:26;100883.06;;;16.79;36.65
58757;BME280;44527;47.460;19.016;2023-04-28T05:21:28;100886.50;;;16.91;37.57
58757;BME280;44527;47.460;19.016;2023-04-28T05:24:31;100888.88;;;17.66;34.31
58757;BME280;44527;47.460;19.016;2023-04-28T05:27:33;100890.50;;;18.87;31.81
58757;BME280;44527;47.460;19.016;2023-04-28T05:30:40;100892.59;;;19.50;29.91
58757;BME280;44527;47.460;19.016;2023-04-28T05:33:45;100901.00;;;18.79;31.56
58757;BME280;44527;47.460;19.016;2023-04-28T05:36:51;100900.78;;;19.29;30.39
58757;BME280;44527;47.460;19.016;2023-04-28T05:39:54;100890.75;;;18.94;31.23
58757;BME280;44527;47.460;19.016;2023-04-28T05:42:56;100895.66;;;18.98;30.47
58757;BME280;44527;47.460;19.016;2023-04-28T05:45:59;100898.31;;;18.59;31.09
58757;BME280;44527;47.460;19.016;2023-04-28T05:49:01;100902.47;;;19.30;29.58
58757;BME280;44527;47.460;19.016;2023-04-28T05:52:04;100906.44;;;18.97;31.05
58757;BME280;44527;47.460;19.016;2023-04-28T05:55:08;100901.00;;;18.89;30.39
58757;BME280;44527;47.460;19.016;2023-04-28T05:58:10;100900.69;;;17.53;32.33
58757;BME280;44527;47.460;19.016;2023-04-28T06:01:13;100907.78;;;16.36;35.33
58757;BME280;44527;47.460;19.016;2023-04-28T06:04:15;100901.87;;;16.44;34.36
58757;BME280;44527;47.460;19.016;2023-04-28T06:07:18;100895.72;;;17.69;33.88
58757;BME280;44527;47.460;19.016;2023-04-28T06:10:24;100905.72;;;18.36;32.82
58757;BME280;44527;47.460;19.016;2023-04-28T06:13:28;100899.16;;;18.60;31.48
58757;BME280;44527;47.460;19.016;2023-04-28T06:16:31;100900.16;;;17.59;33.03
58757;BME280;44527;47.460;19.016;2023-04-28T06:19:33;100907.25;;;16.53;34.59
58757;BME280;44527;47.460;19.016;2023-04-28T06:22:36;100899.91;;;16.02;36.35
58757;BME280;44527;47.460;19.016;2023-04-28T06:25:38;100902.84;;;15.77;37.60
58757;BME280;44527;47.460;19.016;2023-04-28T06:28:41;100908.56;;;15.93;36.17
58757;BME280;44527;47.460;19.016;2023-04-28T06:31:43;100908.19;;;16.20;35.35
58757;BME280;44527;47.460;19.016;2023-04-28T06:34:48;100911.37;;;15.80;36.06
58757;BME280;44527;47.460;19.016;2023-04-28T06:37:51;100910.38;;;15.59;36.49
58757;BME280;44527;47.460;19.016;2023-04-28T06:40:54;100907.16;;;15.89;36.64
58757;BME280;44527;47.460;19.016;2023-04-28T06:43:56;100919.88;;;16.06;35.98
58757;BME280;44527;47.460;19.016;2023-04-28T06:46:59;100912.06;;;16.05;36.43
58757;BME280;44527;47.460;19.016;2023-04-28T06:50:02;100913.78;;;15.95;38.10
58757;BME280;44527;47.460;19.016;2023-04-28T06:53:08;100916.31;;;16.40;36.79
58757;BME280;44527;47.460;19.016;2023-04-28T06:56:10;100920.09;;;16.26;36.88
58757;BME280;44527;47.460;19.016;2023-04-28T06:59:13;100911.06;;;16.28;36.23
58757;BME280;44527;47.460;19.016;2023-04-28T07:02:15;100904.59;;;16.10;37.42
58757;BME280;44527;47.460;19.016;2023-04-28T07:05:17;100905.16;;;17.52;35.16
58757;BME280;44527;47.460;19.016;2023-04-28T07:08:20;100904.16;;;17.53;33.62
58757;BME280;44527;47.460;19.016;2023-04-28T07:11:22;100907.22;;;17.49;34.52
58757;BME280;44527;47.460;19.016;2023-04-28T07:14:24;100910.66;;;18.80;31.80
58757;BME280;44527;47.460;19.016;2023-04-28T07:17:27;100906.03;;;20.59;28.33
58757;BME280;44527;47.460;19.016;2023-04-28T07:20:31;100907.16;;;20.92;27.41
58757;BME280;44527;47.460;19.016;2023-04-28T07:23:34;100906.03;;;21.21;27.92
58757;BME280;44527;47.460;19.016;2023-04-28T07:26:38;100900.94;;;20.20;28.49
58757;BME280;44527;47.460;19.016;2023-04-28T07:29:40;100902.78;;;19.55;31.37
58757;BME280;44527;47.460;19.016;2023-04-28T07:32:44;100907.31;;;19.44;29.72
58757;BME280;44527;47.460;19.016;2023-04-28T07:35:47;100903.31;;;19.21;30.33
58757;BME280;44527;47.460;19.016;2023-04-28T07:38:50;100897.63;;;18.96;31.39
58757;BME280;44527;47.460;19.016;2023-04-28T07:41:52;100907.06;;;18.11;31.34
58757;BME280;44527;47.460;19.016;2023-04-28T07:44:55;100896.50;;;17.90;30.98
58757;BME280;44527;47.460;19.016;2023-04-28T07:48:00;100897.84;;;17.44;32.03
58757;BME280;44527;47.460;19.016;2023-04-28T07:51:03;100899.41;;;18.28;31.19
58757;BME280;44527;47.460;19.016;2023-04-28T07:54:05;100882.94;;;17.84;32.54
58757;BME280;44527;47.460;19.016;2023-04-28T07:57:07;100883.41;;;18.08;30.94
58757;BME280;44527;47.460;19.016;2023-04-28T08:00:11;100879.91;;;17.58;32.44
58757;BME280;44527;47.460;19.016;2023-04-28T08:03:14;100870.56;;;17.94;31.87
58757;BME280;44527;47.460;19.016;2023-04-28T08:06:17;100873.84;;;18.46;29.88
58757;BME280;44527;47.460;19.016;2023-04-28T08:09:20;100863.06;;;18.28;30.28
58757;BME280;44527;47.460;19.016;2023-04-28T08:12:22;100859.88;;;18.73;30.50
58757;BME280;44527;47.460;19.016;2023-04-28T08:15:24;100860.94;;;18.51;31.49
58757;BME280;44527;47.460;19.016;2023-04-28T08:18:28;100854.97;;;18.40;31.13
58757;BME280;44527;47.460;19.016;2023-04-28T08:21:30;100852.56;;;18.46;29.67
58757;BME280;44527;47.460;19.016;2023-04-28T08:24:33;100848.22;;;18.26;30.04
58757;BME280;44527;47.460;19.016;2023-04-28T08:27:35;100843.16;;;18.03;30.09
58757;BME280;44527;47.460;19.016;2023-04-28T08:30:40;100828.62;;;17.57;29.15
58757;BME280;44527;47.460;19.016;2023-04-28T08:33:42;100829.97;;;17.11;32.23
58757;BME280;44527;47.460;19.016;2023-04-28T08:36:46;100827.63;;;17.18;33.27
58757;BME280;44527;47.460;19.016;2023-04-28T08:39:48;100829.28;;;17.19;31.99
58757;BME280;44527;47.460;19.016;2023-04-28T08:42:50;100829.34;;;16.45;31.63
58757;BME280;44527;47.460;19.016;2023-04-28T08:45:53;100824.81;;;16.89;32.68
58757;BME280;44527;47.460;19.016;2023-04-28T08:48:59;100830.13;;;17.19;33.51
58757;BME280;44527;47.460;19.016;2023-04-28T08:52:02;100826.19;;;17.44;31.72
58757;BME280;44527;47.460;19.016;2023-04-28T08:55:11;100814.66;;;16.94;32.77
58757;BME280;44527;47.460;19.016;2023-04-28T08:58:14;100818.84;;;17.17;31.27
58757;BME280;44527;47.460;19.016;2023-04-28T09:01:16;100817.56;;;16.91;32.83
58757;BME280;44527;47.460;19.016;2023-04-28T09:04:19;100813.88;;;17.03;32.80
58757;BME280;44527;47.460;19.016;2023-04-28T09:07:22;100823.75;;;16.59;31.67
58757;BME280;44527;47.460;19.016;2023-04-28T09:10:25;100816.63;;;16.39;32.60
58757;BME280;44527;47.460;19.016;2023-04-28T09:13:28;100829.00;;;17.12;32.27
58757;BME280;44527;47.460;19.016;2023-04-28T09:16:40;100821.03;;;17.12;32.34
58757;BME280;44527;47.460;19.016;2023-04-28T09:19:45;100820.84;;;17.04;32.12
58757;BME280;44527;47.460;19.016;2023-04-28T09:26:14;100809.69;;;16.80;32.00
58757;BME280;44527;47.460;19.016;2023-04-28T09:29:16;100811.94;;;17.36;32.48
58757;BME280;44527;47.460;19.016;2023-04-28T09:32:21;100808.31;;;17.46;30.19
58757;BME280;44527;47.460;19.016;2023-04-28T09:35:38;100812.97;;;17.95;30.83
58757;BME280;44527;47.460;19.016;2023-04-28T09:38:44;100821.50;;;18.47;28.97
58757;BME280;44527;47.460;19.016;2023-04-28T09:41:46;100815.66;;;18.33;26.94
58757;BME280;44527;47.460;19.016;2023-04-28T09:44:52;100813.69;;;18.55;29.35
58757;BME280;44527;47.460;19.016;2023-04-28T09:47:56;100810.03;;;18.17;28.36
58757;BME280;44527;47.460;19.016;2023-04-28T09:51:09;100802.78;;;18.58;29.23
58757;BME280;44527;47.460;19.016;2023-04-28T09:54:14;100782.84;;;18.72;28.16
58757;BME280;44527;47.460;19.016;2023-04-28T09:57:17;100788.47;;;18.69;29.32
58757;BME280;44527;47.460;19.016;2023-04-28T10:00:20;100787.78;;;17.99;30.35
58757;BME280;44527;47.460;19.016;2023-04-28T10:03:24;100786.13;;;18.07;30.25
58757;BME280;44527;47.460;19.016;2023-04-28T10:06:32;100792.13;;;18.48;30.22
58757;BME280;44527;47.460;19.016;2023-04-28T10:09:36;100785.53;;;17.84;29.68
58757;BME280;44527;47.460;19.016;2023-04-28T10:12:39;100773.19;;;17.64;30.88
58757;BME280;44527;47.460;19.016;2023-04-28T10:15:41;100761.78;;;17.92;31.53
58757;BME280;44527;47.460;19.016;2023-04-28T10:18:45;100754.72;;;17.12;32.21
58757;BME280;44527;47.460;19.016;2023-04-28T10:21:53;100758.16;;;17.34;31.13
58757;BME280;44527;47.460;19.016;2023-04-28T10:28:08;100756.31;;;17.25;31.84
58757;BME280;44527;47.460;19.016;2023-04-28T10:31:14;100739.81;;;17.21;32.26
58757;BME280;44527;47.460;19.016;2023-04-28T10:34:20;100731.09;;;17.40;31.31
58757;BME280;44527;47.460;19.016;2023-04-28T10:37:52;100729.56;;;17.47;32.05
58757;BME280;44527;47.460;19.016;2023-04-28T10:43:48;100723.22;;;17.98;31.24
58757;BME280;44527;47.460;19.016;2023-04-28T10:47:04;100725.31;;;17.95;31.63
58757;BME280;44527;47.460;19.016;2023-04-28T10:50:10;100717.84;;;18.47;31.57
58757;BME280;44527;47.460;19.016;2023-04-28T10:53:12;100713.84;;;18.23;31.59
58757;BME280;44527;47.460;19.016;2023-04-28T10:56:15;100702.13;;;18.06;30.33
58757;BME280;44527;47.460;19.016;2023-04-28T10:59:26;100697.94;;;18.04;30.86
58757;BME280;44527;47.460;19.016;2023-04-28T11:02:35;100699.16;;;17.71;30.81
58757;BME280;44527;47.460;19.016;2023-04-28T11:12:18;100694.37;;;17.74;31.86
58757;BME280;44527;47.460;19.016;2023-04-28T11:15:20;100674.03;;;18.04;30.39
58757;BME280;44527;47.460;19.016;2023-04-28T11:18:23;100682.00;;;17.94;30.70
58757;BME280;44527;47.460;19.016;2023-04-28T11:21:26;100672.88;;;18.26;32.21
58757;BME280;44527;47.460;19.016;2023-04-28T11:24:29;100673.84;;;18.15;31.13
58757;BME280;44527;47.460;19.016;2023-04-28T11:27:32;100672.56;;;18.38;31.57
58757;BME280;44527;47.460;19.016;2023-04-28T11:30:34;100675.66;;;18.24;30.60
58757;BME280;44527;47.460;19.016;2023-04-28T11:33:37;100669.69;;;18.12;30.88
58757;BME280;44527;47.460;19.016;2023-04-28T11:36:39;100676.78;;;18.31;30.89
58757;BME280;44527;47.460;19.016;2023-04-28T11:39:42;100664.78;;;18.08;30.92
58757;BME280;44527;47.460;19.016;2023-04-28T11:42:47;100677.44;;;18.43;31.18
58757;BME280;44527;47.460;19.016;2023-04-28T11:45:49;100667.97;;;18.78;31.03
58757;BME280;44527;47.460;19.016;2023-04-28T11:49:10;100673.53;;;19.12;30.05
58757;BME280;44527;47.460;19.016;2023-04-28T11:52:12;100670.03;;;18.84;30.86
58757;BME280;44527;47.460;19.016;2023-04-28T11:55:15;100657.56;;;18.47;30.88
58757;BME280;44527;47.460;19.016;2023-04-28T11:58:20;100662.16;;;18.55;31.07
58757;BME280;44527;47.460;19.016;2023-04-28T12:01:24;100645.53;;;18.53;31.42
58757;BME280;44527;47.460;19.016;2023-04-28T12:07:39;100646.56;;;18.32;31.97
58757;BME280;44527;47.460;19.016;2023-04-28T12:10:43;100647.94;;;18.46;30.14
58757;BME280;44527;47.460;19.016;2023-04-28T12:14:05;100650.25;;;18.59;31.15
58757;BME280;44527;47.460;19.016;2023-04-28T12:17:16;100652.41;;;18.36;30.61
58757;BME280;44527;47.460;19.016;2023-04-28T12:20:33;100645.09;;;18.01;31.54
58757;BME280;44527;47.460;19.016;2023-04-28T12:23:36;100637.47;;;18.35;31.36
58757;BME280;44527;47.460;19.016;2023-04-28T12:26:38;100636.66;;;18.15;31.41
58757;BME280;44527;47.460;19.016;2023-04-28T12:29:41;100626.09;;;17.86;31.98
58757;BME280;44527;47.460;19.016;2023-04-28T12:32:44;100629.75;;;17.85;32.76
58757;BME280;44527;47.460;19.016;2023-04-28T12:35:46;100622.59;;;17.76;34.06
58757;BME280;44527;47.460;19.016;2023-04-28T12:38:50;100613.91;;;17.93;33.90
58757;BME280;44527;47.460;19.016;2023-04-28T12:41:52;100614.25;;;18.27;33.19
58757;BME280;44527;47.460;19.016;2023-04-28T12:44:55;100602.09;;;18.34;32.28
58757;BME280;44527;47.460;19.016;2023-04-28T12:47:58;100596.56;;;18.08;32.26
58757;BME280;44527;47.460;19.016;2023-04-28T12:51:00;100587.56;;;18.29;32.35
58757;BME280;44527;47.460;19.016;2023-04-28T12:54:04;100576.75;;;18.40;33.11
58757;BME280;44527;47.460;19.016;2023-04-28T12:57:06;100568.16;;;18.19;32.63
58757;BME280;44527;47.460;19.016;2023-04-28T13:00:08;100556.84;;;18.44;32.80
58757;BME280;44527;47.460;19.016;2023-04-28T13:03:12;100545.75;;;18.58;32.88
58757;BME280;44527;47.460;19.016;2023-04-28T13:06:14;100541.66;;;18.92;32.00
58757;BME280;44527;47.460;19.016;2023-04-28T13:09:17;100532.09;;;18.44;33.53
58757;BME280;44527;47.460;19.016;2023-04-28T13:12:21;100518.91;;;18.24;32.66
58757;BME280;44527;47.460;19.016;2023-04-28T13:15:24;100531.28;;;18.06;32.46
58757;BME280;44527;47.460;19.016;2023-04-28T13:18:27;100528.94;;;17.93;32.95
58757;BME280;44527;47.460;19.016;2023-04-28T13:21:29;100526.41;;;18.38;33.05
58757;BME280;44527;47.460;19.016;2023-04-28T13:24:31;100526.47;;;19.02;32.82
58757;BME280;44527;47.460;19.016;2023-04-28T13:27:36;100524.41;;;18.96;31.76
58757;BME280;44527;47.460;19.016;2023-04-28T13:30:41;100518.87;;;18.62;31.56
58757;BME280;44527;47.460;19.016;2023-04-28T13:33:43;100522.31;;;18.44;33.30
58757;BME280;44527;47.460;19.016;2023-04-28T13:36:45;100524.75;;;18.00;32.76
58757;BME280;44527;47.460;19.016;2023-04-28T13:39:49;100526.53;;;18.00;33.06
58757;BME280;44527;47.460;19.016;2023-04-28T13:42:51;100528.03;;;18.12;33.31
58757;BME280;44527;47.460;19.016;2023-04-28T13:45:53;100519.53;;;18.08;32.57
58757;BME280;44527;47.460;19.016;2023-04-28T13:48:55;100521.72;;;18.23;33.11
58757;BME280;44527;47.460;19.016;2023-04-28T13:51:58;100526.78;;;18.16;33.08
58757;BME280;44527;47.460;19.016;2023-04-28T13:55:01;100509.69;;;17.91;32.94
58757;BME280;44527;47.460;19.016;2023-04-28T13:58:04;100505.59;;;17.97;33.53
58757;BME280;44527;47.460;19.016;2023-04-28T14:01:08;100489.72;;;18.14;33.60
58757;BME280;44527;47.460;19.016;2023-04-28T14:04:12;100479.47;;;17.92;33.74
58757;BME280;44527;47.460;19.016;2023-04-28T14:07:15;100477.97;;;17.80;34.68
58757;BME280;44527;47.460;19.016;2023-04-28T14:10:17;100474.59;;;17.87;33.62
58757;BME280;44527;47.460;19.016;2023-04-28T14:13:19;100469.50;;;18.04;34.43
58757;BME280;44527;47.460;19.016;2023-04-28T14:16:22;100468.19;;;17.80;33.68
58757;BME280;44527;47.460;19.016;2023-04-28T14:19:26;100468.91;;;17.63;34.95
58757;BME280;44527;47.460;19.016;2023-04-28T14:22:29;100462.84;;;17.90;35.54
58757;BME280;44527;47.460;19.016;2023-04-28T14:25:31;100461.75;;;17.83;34.80
58757;BME280;44527;47.460;19.016;2023-04-28T14:28:34;100456.53;;;18.01;35.03
58757;BME280;44527;47.460;19.016;2023-04-28T14:31:36;100462.56;;;18.21;36.02
58757;BME280;44527;47.460;19.016;2023-04-28T14:34:39;100453.28;;;18.07;35.90
58757;BME280;44527;47.460;19.016;2023-04-28T14:37:41;100454.53;;;18.12;35.45
58757;BME280;44527;47.460;19.016;2023-04-28T14:40:44;100453.06;;;17.90;35.77
58757;BME280;44527;47.460;19.016;2023-04-28T14:43:47;100443.50;;;18.07;35.67
58757;BME280;44527;47.460;19.016;2023-04-28T14:46:50;100445.94;;;17.91;34.97
58757;BME280;44527;47.460;19.016;2023-04-28T14:49:52;100451.84;;;17.85;36.04
58757;BME280;44527;47.460;19.016;2023-04-28T14:52:56;100439.59;;;17.64;36.03
58757;BME280;44527;47.460;19.016;2023-04-28T14:56:06;100441.53;;;17.82;36.05
58757;BME280;44527;47.460;19.016;2023-04-28T14:59:20;100438.47;;;17.67;36.16
58757;BME280;44527;47.460;19.016;2023-04-28T15:02:22;100432.31;;;17.66;36.59
58757;BME280;44527;47.460;19.016;2023-04-28T15:05:30;100432.75;;;17.62;35.37
58757;BME280;44527;47.460;19.016;2023-04-28T15:08:32;100426.75;;;17.50;36.17
58757;BME280;44527;47.460;19.016;2023-04-28T15:11:36;100426.59;;;17.61;35.65
58757;BME280;44527;47.460;19.016;2023-04-28T15:14:38;100424.19;;;17.78;35.74
58757;BME280;44527;47.460;19.016;2023-04-28T15:17:40;100420.69;;;17.77;35.99
58757;BME280;44527;47.460;19.016;2023-04-28T15:20:42;100419.53;;;17.89;37.08
58757;BME280;44527;47.460;19.016;2023-04-28T15:23:45;100411.62;;;17.80;36.54
58757;BME280;44527;47.460;19.016;2023-04-28T15:26:47;100403.13;;;17.66;37.47
58757;BME280;44527;47.460;19.016;2023-04-28T15:29:50;100405.06;;;17.64;37.19
58757;BME280;44527;47.460;19.016;2023-04-28T15:32:52;100407.47;;;17.58;37.18
58757;BME280;44527;47.460;19.016;2023-04-28T15:35:55;100405.53;;;17.50;37.43
58757;BME280;44527;47.460;19.016;2023-04-28T15:38:58;100409.38;;;17.18;37.73
58757;BME280;44527;47.460;19.016;2023-04-28T15:42:00;100402.28;;;17.09;38.72
58757;BME280;44527;47.460;19.016;2023-04-28T15:45:03;100402.16;;;17.01;39.05
58757;BME280;44527;47.460;19.016;2023-04-28T15:48:05;100405.34;;;17.05;39.84
58757;BME280;44527;47.460;19.016;2023-04-28T15:51:08;100400.34;;;17.11;39.15
58757;BME280;44527;47.460;19.016;2023-04-28T15:54:11;100397.31;;;16.87;39.86
58757;BME280;44527;47.460;19.016;2023-04-28T15:57:13;100388.06;;;16.71;40.30
58757;BME280;44527;47.460;19.016;2023-04-28T16:00:16;100383.19;;;16.76;40.26
58757;BME280;44527;47.460;19.016;2023-04-28T16:03:18;100380.25;;;16.70;40.62
58757;BME280;44527;47.460;19.016;2023-04-28T16:06:21;100378.16;;;16.64;41.51
58757;BME280;44527;47.460;19.016;2023-04-28T16:09:23;100379.13;;;16.53;40.65